sensor_id;sensor_type;location;lat;lon;timestamp;P1;durP1;ratioP1;P2;durP2;ratioP2
30888;SDS011;51092;50.874;7.024;2023-06-26T00:00:43;7.90;;;6.88;;
30888;SDS011;51092;50.874;7.024;2023-06-26T00:01:48;9.02;;;6.72;;
30888;SDS011;51092;50.874;7.024;2023-06-26T00:02:49;8.70;;;6.68;;
30888;SDS011;51092;50.874;7.024;2023-06-26T00:03:52;8.80;;;6.72;;
30888;SDS011;51092;50.874;7.024;2023-06-26T00:04:53;9.38;;;6.65;;
30888;SDS011;51092;50.874;7.024;2023-06-26T00:05:56;10.00;;;6.65;;
30888;SDS011;51092;50.874;7.024;2023-06-26T00:07:01;6.78;;;6.07;;
30888;SDS011;51092;50.874;7.024;2023-06-26T00:08:04;9.00;;;7.15;;
30888;SDS011;51092;50.874;7.024;2023-06-26T00:09:06;8.27;;;6.60;;
30888;SDS011;51092;50.874;7.024;2023-06-26T00:10:09;7.60;;;6.82;;
30888;SDS011;51092;50.874;7.024;2023-06-26T00:11:11;7.35;;;6.63;;
30888;SDS011;51092;50.874;7.024;2023-06-26T00:12:13;12.02;;;6.82;;
30888;SDS011;51092;50.874;7.024;2023-06-26T00:13:15;7.75;;;6.82;;
30888;SDS011;51092;50.874;7.024;2023-06-26T00:14:17;9.32;;;6.70;;
30888;SDS011;51092;50.874;7.024;2023-06-26T00:15:21;10.70;;;6.80;;
30888;SDS011;51092;50.874;7.024;2023-06-26T00:16:26;7.90;;;7.15;;
30888;SDS011;51092;50.874;7.024;2023-06-26T00:17:27;7.82;;;6.85;;
30888;SDS011;51092;50.874;7.024;2023-06-26T00:18:30;6.90;;;6.20;;
30888;SDS011;51092;50.874;7.024;2023-06-26T00:19:31;10.20;;;7.63;;
30888;SDS011;51092;50.874;7.024;2023-06-26T00:20:34;8.98;;;6.93;;
30888;SDS011;51092;50.874;7.024;2023-06-26T00:21:36;10.45;;;6.68;;
30888;SDS011;51092;50.874;7.024;2023-06-26T00:22:38;7.75;;;6.82;;
30888;SDS011;51092;50.874;7.024;2023-06-26T00:23:41;7.15;;;6.45;;
30888;SDS011;51092;50.874;7.024;2023-06-26T00:24:44;9.07;;;6.53;;
30888;SDS011;51092;50.874;7.024;2023-06-26T00:25:45;7.22;;;6.40;;
30888;SDS011;51092;50.874;7.024;2023-06-26T00:26:48;7.57;;;6.55;;
30888;SDS011;51092;50.874;7.024;2023-06-26T00:27:50;8.98;;;6.55;;
30888;SDS011;51092;50.874;7.024;2023-06-26T00:28:52;8.57;;;6.75;;
30888;SDS011;51092;50.874;7.024;2023-06-26T00:29:54;13.20;;;6.57;;
30888;SDS011;51092;50.874;7.024;2023-06-26T00:30:56;8.68;;;6.90;;
30888;SDS011;51092;50.874;7.024;2023-06-26T00:31:59;8.85;;;6.97;;
30888;SDS011;51092;50.874;7.024;2023-06-26T00:33:02;8.25;;;6.15;;
30888;SDS011;51092;50.874;7.024;2023-06-26T00:34:03;7.15;;;6.45;;
30888;SDS011;51092;50.874;7.024;2023-06-26T00:35:06;7.65;;;6.50;;
30888;SDS011;51092;50.874;7.024;2023-06-26T00:36:07;7.15;;;6.43;;
30888;SDS011;51092;50.874;7.024;2023-06-26T00:37:10;7.00;;;5.93;;
30888;SDS011;51092;50.874;7.024;2023-06-26T00:38:11;7.25;;;6.22;;
30888;SDS011;51092;50.874;7.024;2023-06-26T00:39:15;8.68;;;6.80;;
30888;SDS011;51092;50.874;7.024;2023-06-26T00:40:17;7.93;;;6.88;;
30888;SDS011;51092;50.874;7.024;2023-06-26T00:41:19;8.27;;;6.05;;
30888;SDS011;51092;50.874;7.024;2023-06-26T00:42:20;7.05;;;6.22;;
30888;SDS011;51092;50.874;7.024;2023-06-26T00:43:23;7.75;;;5.82;;
30888;SDS011;51092;50.874;7.024;2023-06-26T00:44:24;10.98;;;6.45;;
30888;SDS011;51092;50.874;7.024;2023-06-26T00:45:27;8.80;;;6.75;;
30888;SDS011;51092;50.874;7.024;2023-06-26T00:46:29;8.50;;;6.75;;
30888;SDS011;51092;50.874;7.024;2023-06-26T00:47:36;8.77;;;6.53;;
30888;SDS011;51092;50.874;7.024;2023-06-26T00:48:38;7.28;;;6.40;;
30888;SDS011;51092;50.874;7.024;2023-06-26T00:49:42;7.53;;;6.82;;
30888;SDS011;51092;50.874;7.024;2023-06-26T00:50:44;9.30;;;6.85;;
30888;SDS011;51092;50.874;7.024;2023-06-26T00:51:46;9.70;;;6.60;;
30888;SDS011;51092;50.874;7.024;2023-06-26T00:52:49;9.98;;;6.93;;
30888;SDS011;51092;50.874;7.024;2023-06-26T00:53:51;8.55;;;6.32;;
30888;SDS011;51092;50.874;7.024;2023-06-26T00:54:53;8.38;;;6.72;;
30888;SDS011;51092;50.874;7.024;2023-06-26T00:55:55;8.48;;;6.88;;
30888;SDS011;51092;50.874;7.024;2023-06-26T00:56:57;9.07;;;7.18;;
30888;SDS011;51092;50.874;7.024;2023-06-26T00:58:00;8.02;;;7.22;;
30888;SDS011;51092;50.874;7.024;2023-06-26T00:59:02;8.20;;;7.45;;
30888;SDS011;51092;50.874;7.024;2023-06-26T01:00:05;8.95;;;6.75;;
30888;SDS011;51092;50.874;7.024;2023-06-26T01:01:08;8.35;;;7.43;;
30888;SDS011;51092;50.874;7.024;2023-06-26T01:02:16;10.32;;;6.72;;
30888;SDS011;51092;50.874;7.024;2023-06-26T01:03:22;10.52;;;7.45;;
30888;SDS011;51092;50.874;7.024;2023-06-26T01:04:26;10.40;;;8.20;;
30888;SDS011;51092;50.874;7.024;2023-06-26T01:05:28;8.70;;;7.90;;
30888;SDS011;51092;50.874;7.024;2023-06-26T01:06:31;9.23;;;8.30;;
30888;SDS011;51092;50.874;7.024;2023-06-26T01:07:36;8.90;;;7.40;;
30888;SDS011;51092;50.874;7.024;2023-06-26T01:08:38;8.70;;;7.80;;
30888;SDS011;51092;50.874;7.024;2023-06-26T01:09:42;8.20;;;7.40;;
30888;SDS011;51092;50.874;7.024;2023-06-26T01:10:44;9.98;;;6.85;;
30888;SDS011;51092;50.874;7.024;2023-06-26T01:11:46;9.05;;;7.68;;
30888;SDS011;51092;50.874;7.024;2023-06-26T01:12:49;8.75;;;7.95;;
30888;SDS011;51092;50.874;7.024;2023-06-26T01:13:51;8.30;;;7.20;;
30888;SDS011;51092;50.874;7.024;2023-06-26T01:14:56;9.85;;;8.15;;
30888;SDS011;51092;50.874;7.024;2023-06-26T01:15:58;8.40;;;7.32;;
30888;SDS011;51092;50.874;7.024;2023-06-26T01:17:00;9.15;;;7.55;;
30888;SDS011;51092;50.874;7.024;2023-06-26T01:18:02;9.02;;;7.50;;
30888;SDS011;51092;50.874;7.024;2023-06-26T01:19:09;8.30;;;7.47;;
30888;SDS011;51092;50.874;7.024;2023-06-26T01:20:13;8.45;;;7.65;;
30888;SDS011;51092;50.874;7.024;2023-06-26T01:21:17;9.00;;;7.45;;
30888;SDS011;51092;50.874;7.024;2023-06-26T01:22:19;9.07;;;7.07;;
30888;SDS011;51092;50.874;7.024;2023-06-26T01:23:29;8.02;;;7.22;;
30888;SDS011;51092;50.874;7.024;2023-06-26T01:24:37;8.73;;;7.88;;
30888;SDS011;51092;50.874;7.024;2023-06-26T01:25:43;8.55;;;7.63;;
30888;SDS011;51092;50.874;7.024;2023-06-26T01:26:58;9.65;;;7.68;;
30888;SDS011;51092;50.874;7.024;2023-06-26T01:28:01;7.78;;;6.97;;
30888;SDS011;51092;50.874;7.024;2023-06-26T01:29:04;11.30;;;7.35;;
30888;SDS011;51092;50.874;7.024;2023-06-26T01:30:08;9.10;;;7.97;;
30888;SDS011;51092;50.874;7.024;2023-06-26T01:31:12;9.07;;;7.72;;
30888;SDS011;51092;50.874;7.024;2023-06-26T01:32:15;7.95;;;7.15;;
30888;SDS011;51092;50.874;7.024;2023-06-26T01:33:18;10.30;;;8.93;;
30888;SDS011;51092;50.874;7.024;2023-06-26T01:34:20;8.50;;;7.40;;
30888;SDS011;51092;50.874;7.024;2023-06-26T01:35:22;8.80;;;7.45;;
30888;SDS011;51092;50.874;7.024;2023-06-26T01:36:25;8.35;;;7.55;;
30888;SDS011;51092;50.874;7.024;2023-06-26T01:37:28;8.23;;;7.43;;
30888;SDS011;51092;50.874;7.024;2023-06-26T01:38:30;9.43;;;7.82;;
30888;SDS011;51092;50.874;7.024;2023-06-26T01:39:32;10.25;;;7.93;;
30888;SDS011;51092;50.874;7.024;2023-06-26T01:40:34;9.15;;;7.55;;
30888;SDS011;51092;50.874;7.024;2023-06-26T01:41:36;8.73;;;7.82;;
30888;SDS011;51092;50.874;7.024;2023-06-26T01:42:39;8.70;;;7.88;;
30888;SDS011;51092;50.874;7.024;2023-06-26T01:43:43;8.23;;;7.20;;
30888;SDS011;51092;50.874;7.024;2023-06-26T01:44:56;8.77;;;7.13;;
30888;SDS011;51092;50.874;7.024;2023-06-26T01:45:59;9.90;;;7.63;;
30888;SDS011;51092;50.874;7.024;2023-06-26T01:47:05;8.93;;;7.25;;
30888;SDS011;51092;50.874;7.024;2023-06-26T01:48:10;9.73;;;7.97;;
30888;SDS011;51092;50.874;7.024;2023-06-26T01:49:18;8.50;;;7.43;;
30888;SDS011;51092;50.874;7.024;2023-06-26T01:50:28;8.35;;;7.38;;
30888;SDS011;51092;50.874;7.024;2023-06-26T01:51:32;12.05;;;7.85;;
30888;SDS011;51092;50.874;7.024;2023-06-26T01:52:40;9.05;;;7.18;;
30888;SDS011;51092;50.874;7.024;2023-06-26T01:53:45;8.82;;;7.38;;
30888;SDS011;51092;50.874;7.024;2023-06-26T01:54:53;9.32;;;7.75;;
30888;SDS011;51092;50.874;7.024;2023-06-26T01:55:59;10.57;;;7.57;;
30888;SDS011;51092;50.874;7.024;2023-06-26T01:57:05;10.55;;;7.85;;
30888;SDS011;51092;50.874;7.024;2023-06-26T01:58:10;12.02;;;8.00;;
30888;SDS011;51092;50.874;7.024;2023-06-26T01:59:15;10.45;;;8.05;;
30888;SDS011;51092;50.874;7.024;2023-06-26T02:00:19;12.18;;;7.85;;
30888;SDS011;51092;50.874;7.024;2023-06-26T02:01:22;8.98;;;7.90;;
30888;SDS011;51092;50.874;7.024;2023-06-26T02:02:24;9.77;;;8.25;;
30888;SDS011;51092;50.874;7.024;2023-06-26T02:03:26;8.32;;;7.38;;
30888;SDS011;51092;50.874;7.024;2023-06-26T02:04:29;9.65;;;7.78;;
30888;SDS011;51092;50.874;7.024;2023-06-26T02:05:32;10.50;;;7.22;;
30888;SDS011;51092;50.874;7.024;2023-06-26T02:06:34;8.00;;;7.20;;
30888;SDS011;51092;50.874;7.024;2023-06-26T02:07:36;9.65;;;7.07;;
30888;SDS011;51092;50.874;7.024;2023-06-26T02:08:38;9.85;;;8.43;;
30888;SDS011;51092;50.874;7.024;2023-06-26T02:09:40;9.07;;;7.18;;
30888;SDS011;51092;50.874;7.024;2023-06-26T02:10:43;11.45;;;8.23;;
30888;SDS011;51092;50.874;7.024;2023-06-26T02:11:44;10.30;;;7.70;;
30888;SDS011;51092;50.874;7.024;2023-06-26T02:12:47;9.70;;;7.50;;
30888;SDS011;51092;50.874;7.024;2023-06-26T02:13:50;8.63;;;7.53;;
30888;SDS011;51092;50.874;7.024;2023-06-26T02:14:52;17.27;;;8.40;;
30888;SDS011;51092;50.874;7.024;2023-06-26T02:15:54;8.88;;;7.97;;
30888;SDS011;51092;50.874;7.024;2023-06-26T02:16:56;10.02;;;7.90;;
30888;SDS011;51092;50.874;7.024;2023-06-26T02:17:58;8.77;;;7.53;;
30888;SDS011;51092;50.874;7.024;2023-06-26T02:19:00;10.45;;;8.02;;
30888;SDS011;51092;50.874;7.024;2023-06-26T02:20:02;10.32;;;7.22;;
30888;SDS011;51092;50.874;7.024;2023-06-26T02:21:06;11.93;;;7.90;;
30888;SDS011;51092;50.874;7.024;2023-06-26T02:22:08;8.02;;;7.22;;
30888;SDS011;51092;50.874;7.024;2023-06-26T02:23:10;8.18;;;7.35;;
30888;SDS011;51092;50.874;7.024;2023-06-26T02:24:12;8.40;;;7.05;;
30888;SDS011;51092;50.874;7.024;2023-06-26T02:25:14;10.45;;;7.95;;
30888;SDS011;51092;50.874;7.024;2023-06-26T02:26:16;8.65;;;7.82;;
30888;SDS011;51092;50.874;7.024;2023-06-26T02:27:18;9.10;;;8.15;;
30888;SDS011;51092;50.874;7.024;2023-06-26T02:28:20;9.02;;;7.57;;
30888;SDS011;51092;50.874;7.024;2023-06-26T02:29:24;9.25;;;7.72;;
30888;SDS011;51092;50.874;7.024;2023-06-26T02:30:26;9.15;;;7.28;;
30888;SDS011;51092;50.874;7.024;2023-06-26T02:31:28;10.82;;;7.60;;
30888;SDS011;51092;50.874;7.024;2023-06-26T02:32:30;7.55;;;6.82;;
30888;SDS011;51092;50.874;7.024;2023-06-26T02:33:31;8.65;;;7.38;;
30888;SDS011;51092;50.874;7.024;2023-06-26T02:34:34;8.80;;;7.88;;
30888;SDS011;51092;50.874;7.024;2023-06-26T02:35:36;10.15;;;8.57;;
30888;SDS011;51092;50.874;7.024;2023-06-26T02:36:38;8.63;;;7.68;;
30888;SDS011;51092;50.874;7.024;2023-06-26T02:37:40;10.55;;;7.07;;
30888;SDS011;51092;50.874;7.024;2023-06-26T02:38:42;8.20;;;6.72;;
30888;SDS011;51092;50.874;7.024;2023-06-26T02:39:44;14.95;;;8.32;;
30888;SDS011;51092;50.874;7.024;2023-06-26T02:40:46;10.98;;;8.18;;
30888;SDS011;51092;50.874;7.024;2023-06-26T02:41:48;10.85;;;7.25;;
30888;SDS011;51092;50.874;7.024;2023-06-26T02:42:50;12.40;;;8.20;;
30888;SDS011;51092;50.874;7.024;2023-06-26T02:43:52;14.63;;;7.55;;
30888;SDS011;51092;50.874;7.024;2023-06-26T02:44:55;8.00;;;7.20;;
30888;SDS011;51092;50.874;7.024;2023-06-26T02:45:57;8.63;;;6.95;;
30888;SDS011;51092;50.874;7.024;2023-06-26T02:47:00;9.80;;;7.55;;
30888;SDS011;51092;50.874;7.024;2023-06-26T02:48:01;8.60;;;7.70;;
30888;SDS011;51092;50.874;7.024;2023-06-26T02:49:04;8.50;;;7.57;;
30888;SDS011;51092;50.874;7.024;2023-06-26T02:50:06;8.00;;;7.20;;
30888;SDS011;51092;50.874;7.024;2023-06-26T02:51:09;12.45;;;8.60;;
30888;SDS011;51092;50.874;7.024;2023-06-26T02:52:10;9.13;;;7.55;;
30888;SDS011;51092;50.874;7.024;2023-06-26T02:53:12;8.95;;;8.05;;
30888;SDS011;51092;50.874;7.024;2023-06-26T02:54:14;9.15;;;8.25;;
30888;SDS011;51092;50.874;7.024;2023-06-26T02:55:17;9.80;;;7.85;;
30888;SDS011;51092;50.874;7.024;2023-06-26T02:56:18;9.57;;;7.63;;
30888;SDS011;51092;50.874;7.024;2023-06-26T02:57:20;8.95;;;8.05;;
30888;SDS011;51092;50.874;7.024;2023-06-26T02:58:22;9.55;;;7.97;;
30888;SDS011;51092;50.874;7.024;2023-06-26T02:59:25;10.63;;;7.78;;
30888;SDS011;51092;50.874;7.024;2023-06-26T03:00:28;11.40;;;7.65;;
30888;SDS011;51092;50.874;7.024;2023-06-26T03:01:31;9.05;;;8.20;;
30888;SDS011;51092;50.874;7.024;2023-06-26T03:02:33;15.52;;;8.48;;
30888;SDS011;51092;50.874;7.024;2023-06-26T03:03:36;8.80;;;7.65;;
30888;SDS011;51092;50.874;7.024;2023-06-26T03:04:41;9.70;;;8.55;;
30888;SDS011;51092;50.874;7.024;2023-06-26T03:05:43;9.55;;;8.55;;
30888;SDS011;51092;50.874;7.024;2023-06-26T03:06:45;10.07;;;7.95;;
30888;SDS011;51092;50.874;7.024;2023-06-26T03:07:48;9.13;;;7.85;;
30888;SDS011;51092;50.874;7.024;2023-06-26T03:08:49;11.60;;;8.18;;
30888;SDS011;51092;50.874;7.024;2023-06-26T03:09:52;10.43;;;8.88;;
30888;SDS011;51092;50.874;7.024;2023-06-26T03:10:53;11.32;;;8.68;;
30888;SDS011;51092;50.874;7.024;2023-06-26T03:11:56;9.40;;;8.20;;
30888;SDS011;51092;50.874;7.024;2023-06-26T03:12:57;12.98;;;8.57;;
30888;SDS011;51092;50.874;7.024;2023-06-26T03:13:59;9.23;;;7.45;;
30888;SDS011;51092;50.874;7.024;2023-06-26T03:15:01;9.57;;;7.53;;
30888;SDS011;51092;50.874;7.024;2023-06-26T03:16:05;11.20;;;7.93;;
30888;SDS011;51092;50.874;7.024;2023-06-26T03:17:07;11.68;;;8.82;;
30888;SDS011;51092;50.874;7.024;2023-06-26T03:18:09;11.32;;;8.38;;
30888;SDS011;51092;50.874;7.024;2023-06-26T03:19:11;9.27;;;8.27;;
30888;SDS011;51092;50.874;7.024;2023-06-26T03:20:13;12.13;;;7.80;;
30888;SDS011;51092;50.874;7.024;2023-06-26T03:21:16;9.00;;;8.07;;
30888;SDS011;51092;50.874;7.024;2023-06-26T03:22:18;11.45;;;8.43;;
30888;SDS011;51092;50.874;7.024;2023-06-26T03:23:20;13.25;;;8.32;;
30888;SDS011;51092;50.874;7.024;2023-06-26T03:24:22;8.35;;;7.47;;
30888;SDS011;51092;50.874;7.024;2023-06-26T03:25:25;9.93;;;7.72;;
30888;SDS011;51092;50.874;7.024;2023-06-26T03:26:27;9.50;;;7.05;;
30888;SDS011;51092;50.874;7.024;2023-06-26T03:27:29;11.80;;;7.55;;
30888;SDS011;51092;50.874;7.024;2023-06-26T03:28:31;9.30;;;7.53;;
30888;SDS011;51092;50.874;7.024;2023-06-26T03:29:33;10.13;;;8.00;;
30888;SDS011;51092;50.874;7.024;2023-06-26T03:30:35;9.30;;;7.88;;
30888;SDS011;51092;50.874;7.024;2023-06-26T03:31:39;8.82;;;7.32;;
30888;SDS011;51092;50.874;7.024;2023-06-26T03:32:40;9.77;;;7.57;;
30888;SDS011;51092;50.874;7.024;2023-06-26T03:33:42;8.75;;;6.70;;
30888;SDS011;51092;50.874;7.024;2023-06-26T03:34:44;10.38;;;7.93;;
30888;SDS011;51092;50.874;7.024;2023-06-26T03:35:47;10.45;;;7.63;;
30888;SDS011;51092;50.874;7.024;2023-06-26T03:36:48;8.75;;;7.30;;
30888;SDS011;51092;50.874;7.024;2023-06-26T03:37:51;8.10;;;7.20;;
30888;SDS011;51092;50.874;7.024;2023-06-26T03:38:52;12.23;;;7.13;;
30888;SDS011;51092;50.874;7.024;2023-06-26T03:39:57;8.18;;;6.40;;
30888;SDS011;51092;50.874;7.024;2023-06-26T03:41:01;8.73;;;7.05;;
30888;SDS011;51092;50.874;7.024;2023-06-26T03:42:04;7.25;;;6.30;;
30888;SDS011;51092;50.874;7.024;2023-06-26T03:43:06;8.00;;;6.50;;
30888;SDS011;51092;50.874;7.024;2023-06-26T03:44:08;7.63;;;6.78;;
30888;SDS011;51092;50.874;7.024;2023-06-26T03:45:10;7.57;;;5.72;;
30888;SDS011;51092;50.874;7.024;2023-06-26T03:46:13;7.72;;;6.30;;
30888;SDS011;51092;50.874;7.024;2023-06-26T03:47:15;8.40;;;7.20;;
30888;SDS011;51092;50.874;7.024;2023-06-26T03:48:18;7.55;;;6.53;;
30888;SDS011;51092;50.874;7.024;2023-06-26T03:49:20;8.02;;;6.60;;
30888;SDS011;51092;50.874;7.024;2023-06-26T03:50:22;10.25;;;6.72;;
30888;SDS011;51092;50.874;7.024;2023-06-26T03:51:24;7.38;;;6.07;;
30888;SDS011;51092;50.874;7.024;2023-06-26T03:52:26;9.43;;;5.80;;
30888;SDS011;51092;50.874;7.024;2023-06-26T03:53:31;9.57;;;6.32;;
30888;SDS011;51092;50.874;7.024;2023-06-26T03:54:33;9.48;;;6.68;;
30888;SDS011;51092;50.874;7.024;2023-06-26T03:55:35;7.43;;;6.18;;
30888;SDS011;51092;50.874;7.024;2023-06-26T03:56:39;8.82;;;5.85;;
30888;SDS011;51092;50.874;7.024;2023-06-26T03:57:41;10.35;;;6.72;;
30888;SDS011;51092;50.874;7.024;2023-06-26T03:58:43;9.65;;;6.72;;
30888;SDS011;51092;50.874;7.024;2023-06-26T03:59:45;9.98;;;6.75;;
30888;SDS011;51092;50.874;7.024;2023-06-26T04:00:47;8.77;;;7.15;;
30888;SDS011;51092;50.874;7.024;2023-06-26T04:01:49;7.68;;;6.90;;
30888;SDS011;51092;50.874;7.024;2023-06-26T04:02:53;8.98;;;7.80;;
30888;SDS011;51092;50.874;7.024;2023-06-26T04:03:54;9.00;;;7.88;;
30888;SDS011;51092;50.874;7.024;2023-06-26T04:04:57;9.60;;;7.13;;
30888;SDS011;51092;50.874;7.024;2023-06-26T04:05:58;8.57;;;6.25;;
30888;SDS011;51092;50.874;7.024;2023-06-26T04:07:00;11.10;;;7.20;;
30888;SDS011;51092;50.874;7.024;2023-06-26T04:08:03;7.50;;;6.28;;
30888;SDS011;51092;50.874;7.024;2023-06-26T04:09:05;7.53;;;6.07;;
30888;SDS011;51092;50.874;7.024;2023-06-26T04:10:08;7.65;;;5.85;;
30888;SDS011;51092;50.874;7.024;2023-06-26T04:11:11;7.50;;;6.38;;
30888;SDS011;51092;50.874;7.024;2023-06-26T04:12:13;6.72;;;6.03;;
30888;SDS011;51092;50.874;7.024;2023-06-26T04:13:15;6.05;;;5.45;;
30888;SDS011;51092;50.874;7.024;2023-06-26T04:14:17;10.05;;;6.32;;
30888;SDS011;51092;50.874;7.024;2023-06-26T04:15:19;7.30;;;6.30;;
30888;SDS011;51092;50.874;7.024;2023-06-26T04:16:21;8.70;;;6.13;;
30888;SDS011;51092;50.874;7.024;2023-06-26T04:17:25;9.68;;;5.82;;
30888;SDS011;51092;50.874;7.024;2023-06-26T04:18:29;11.43;;;6.55;;
30888;SDS011;51092;50.874;7.024;2023-06-26T04:19:31;7.47;;;5.63;;
30888;SDS011;51092;50.874;7.024;2023-06-26T04:20:37;9.40;;;6.07;;
30888;SDS011;51092;50.874;7.024;2023-06-26T04:21:41;11.52;;;6.18;;
30888;SDS011;51092;50.874;7.024;2023-06-26T04:22:42;9.90;;;5.82;;
30888;SDS011;51092;50.874;7.024;2023-06-26T04:23:45;8.10;;;6.00;;
30888;SDS011;51092;50.874;7.024;2023-06-26T04:24:48;5.82;;;5.22;;
30888;SDS011;51092;50.874;7.024;2023-06-26T04:25:50;9.40;;;6.15;;
30888;SDS011;51092;50.874;7.024;2023-06-26T04:26:52;8.10;;;5.90;;
30888;SDS011;51092;50.874;7.024;2023-06-26T04:27:57;7.43;;;6.30;;
30888;SDS011;51092;50.874;7.024;2023-06-26T04:28:59;8.60;;;6.00;;
30888;SDS011;51092;50.874;7.024;2023-06-26T04:30:02;7.80;;;5.70;;
30888;SDS011;51092;50.874;7.024;2023-06-26T04:31:05;10.18;;;6.05;;
30888;SDS011;51092;50.874;7.024;2023-06-26T04:32:09;6.78;;;5.63;;
30888;SDS011;51092;50.874;7.024;2023-06-26T04:33:11;11.07;;;6.65;;
30888;SDS011;51092;50.874;7.024;2023-06-26T04:34:15;8.65;;;5.70;;
30888;SDS011;51092;50.874;7.024;2023-06-26T04:35:16;7.05;;;5.35;;
30888;SDS011;51092;50.874;7.024;2023-06-26T04:36:20;6.30;;;5.55;;
30888;SDS011;51092;50.874;7.024;2023-06-26T04:37:22;7.75;;;5.35;;
30888;SDS011;51092;50.874;7.024;2023-06-26T04:38:25;6.28;;;5.35;;
30888;SDS011;51092;50.874;7.024;2023-06-26T04:39:26;6.70;;;5.82;;
30888;SDS011;51092;50.874;7.024;2023-06-26T04:40:29;8.77;;;5.95;;
30888;SDS011;51092;50.874;7.024;2023-06-26T04:41:30;9.40;;;6.03;;
30888;SDS011;51092;50.874;7.024;2023-06-26T04:42:33;9.88;;;6.32;;
30888;SDS011;51092;50.874;7.024;2023-06-26T04:43:34;9.18;;;6.03;;
30888;SDS011;51092;50.874;7.024;2023-06-26T04:44:37;8.70;;;5.88;;
30888;SDS011;51092;50.874;7.024;2023-06-26T04:45:38;9.57;;;6.22;;
30888;SDS011;51092;50.874;7.024;2023-06-26T04:46:41;9.10;;;6.38;;
30888;SDS011;51092;50.874;7.024;2023-06-26T04:47:42;7.40;;;5.88;;
30888;SDS011;51092;50.874;7.024;2023-06-26T04:48:45;8.27;;;6.05;;
30888;SDS011;51092;50.874;7.024;2023-06-26T04:49:48;8.52;;;6.30;;
30888;SDS011;51092;50.874;7.024;2023-06-26T04:50:51;11.50;;;6.72;;
30888;SDS011;51092;50.874;7.024;2023-06-26T04:51:54;10.48;;;6.40;;
30888;SDS011;51092;50.874;7.024;2023-06-26T04:52:57;8.95;;;7.40;;
30888;SDS011;51092;50.874;7.024;2023-06-26T04:53:58;6.95;;;6.25;;
30888;SDS011;51092;50.874;7.024;2023-06-26T04:55:01;7.60;;;5.95;;
30888;SDS011;51092;50.874;7.024;2023-06-26T04:56:02;10.98;;;6.15;;
30888;SDS011;51092;50.874;7.024;2023-06-26T04:57:05;10.60;;;5.57;;
30888;SDS011;51092;50.874;7.024;2023-06-26T04:58:08;7.53;;;6.10;;
30888;SDS011;51092;50.874;7.024;2023-06-26T04:59:11;10.13;;;6.90;;
30888;SDS011;51092;50.874;7.024;2023-06-26T05:00:14;8.15;;;6.20;;
30888;SDS011;51092;50.874;7.024;2023-06-26T05:01:17;9.48;;;6.82;;
30888;SDS011;51092;50.874;7.024;2023-06-26T05:02:18;8.18;;;6.13;;
30888;SDS011;51092;50.874;7.024;2023-06-26T05:03:21;8.40;;;5.43;;
30888;SDS011;51092;50.874;7.024;2023-06-26T05:04:22;6.80;;;5.60;;
30888;SDS011;51092;50.874;7.024;2023-06-26T05:05:26;9.95;;;5.97;;
30888;SDS011;51092;50.874;7.024;2023-06-26T05:06:27;9.50;;;6.45;;
30888;SDS011;51092;50.874;7.024;2023-06-26T05:07:29;13.38;;;6.20;;
30888;SDS011;51092;50.874;7.024;2023-06-26T05:08:31;10.13;;;5.90;;
30888;SDS011;51092;50.874;7.024;2023-06-26T05:09:33;7.30;;;5.95;;
30888;SDS011;51092;50.874;7.024;2023-06-26T05:10:35;8.00;;;5.93;;
30888;SDS011;51092;50.874;7.024;2023-06-26T05:11:37;11.30;;;5.88;;
30888;SDS011;51092;50.874;7.024;2023-06-26T05:12:39;9.30;;;5.50;;
30888;SDS011;51092;50.874;7.024;2023-06-26T05:13:40;8.82;;;6.25;;
30888;SDS011;51092;50.874;7.024;2023-06-26T05:14:42;9.23;;;5.82;;
30888;SDS011;51092;50.874;7.024;2023-06-26T05:15:43;9.45;;;6.60;;
30888;SDS011;51092;50.874;7.024;2023-06-26T05:16:46;7.10;;;5.60;;
30888;SDS011;51092;50.874;7.024;2023-06-26T05:17:48;10.40;;;6.40;;
30888;SDS011;51092;50.874;7.024;2023-06-26T05:18:50;6.65;;;5.10;;
30888;SDS011;51092;50.874;7.024;2023-06-26T05:19:52;8.05;;;5.75;;
30888;SDS011;51092;50.874;7.024;2023-06-26T05:20:55;12.98;;;6.18;;
30888;SDS011;51092;50.874;7.024;2023-06-26T05:21:58;7.10;;;5.68;;
30888;SDS011;51092;50.874;7.024;2023-06-26T05:23:04;9.10;;;5.30;;
30888;SDS011;51092;50.874;7.024;2023-06-26T05:24:06;7.85;;;6.25;;
30888;SDS011;51092;50.874;7.024;2023-06-26T05:25:10;7.85;;;6.10;;
30888;SDS011;51092;50.874;7.024;2023-06-26T05:26:14;7.78;;;5.45;;
30888;SDS011;51092;50.874;7.024;2023-06-26T05:27:16;8.10;;;5.88;;
30888;SDS011;51092;50.874;7.024;2023-06-26T05:28:22;8.75;;;5.40;;
30888;SDS011;51092;50.874;7.024;2023-06-26T05:29:25;7.22;;;5.25;;
30888;SDS011;51092;50.874;7.024;2023-06-26T05:30:28;6.90;;;5.30;;
30888;SDS011;51092;50.874;7.024;2023-06-26T05:31:31;9.57;;;5.38;;
30888;SDS011;51092;50.874;7.024;2023-06-26T05:32:37;6.07;;;5.45;;
30888;SDS011;51092;50.874;7.024;2023-06-26T05:33:40;8.38;;;5.85;;
30888;SDS011;51092;50.874;7.024;2023-06-26T05:34:46;7.72;;;5.47;;
30888;SDS011;51092;50.874;7.024;2023-06-26T05:35:49;8.60;;;5.30;;
30888;SDS011;51092;50.874;7.024;2023-06-26T05:36:55;10.98;;;5.50;;
30888;SDS011;51092;50.874;7.024;2023-06-26T05:38:00;8.18;;;5.32;;
30888;SDS011;51092;50.874;7.024;2023-06-26T05:39:03;9.68;;;5.72;;
30888;SDS011;51092;50.874;7.024;2023-06-26T05:40:07;9.52;;;5.38;;
30888;SDS011;51092;50.874;7.024;2023-06-26T05:41:09;6.80;;;4.82;;
30888;SDS011;51092;50.874;7.024;2023-06-26T05:42:13;8.45;;;5.07;;
30888;SDS011;51092;50.874;7.024;2023-06-26T05:43:16;8.63;;;5.60;;
30888;SDS011;51092;50.874;7.024;2023-06-26T05:44:21;7.82;;;5.30;;
30888;SDS011;51092;50.874;7.024;2023-06-26T05:45:24;12.98;;;5.80;;
30888;SDS011;51092;50.874;7.024;2023-06-26T05:46:25;11.30;;;5.47;;
30888;SDS011;51092;50.874;7.024;2023-06-26T05:47:28;8.45;;;5.68;;
30888;SDS011;51092;50.874;7.024;2023-06-26T05:48:29;8.02;;;4.80;;
30888;SDS011;51092;50.874;7.024;2023-06-26T05:49:32;12.85;;;5.00;;
30888;SDS011;51092;50.874;7.024;2023-06-26T05:50:35;11.57;;;4.93;;
30888;SDS011;51092;50.874;7.024;2023-06-26T05:51:38;12.20;;;4.97;;
30888;SDS011;51092;50.874;7.024;2023-06-26T05:52:41;7.32;;;4.50;;
30888;SDS011;51092;50.874;7.024;2023-06-26T05:53:44;7.53;;;4.50;;
30888;SDS011;51092;50.874;7.024;2023-06-26T05:54:47;13.45;;;5.00;;
30888;SDS011;51092;50.874;7.024;2023-06-26T05:55:49;8.60;;;4.75;;
30888;SDS011;51092;50.874;7.024;2023-06-26T05:56:52;8.13;;;4.78;;
30888;SDS011;51092;50.874;7.024;2023-06-26T05:58:00;8.90;;;4.72;;
30888;SDS011;51092;50.874;7.024;2023-06-26T05:59:04;8.82;;;4.75;;
30888;SDS011;51092;50.874;7.024;2023-06-26T06:00:09;10.57;;;4.78;;
30888;SDS011;51092;50.874;7.024;2023-06-26T06:01:13;9.00;;;4.82;;
30888;SDS011;51092;50.874;7.024;2023-06-26T06:02:15;8.15;;;4.47;;
30888;SDS011;51092;50.874;7.024;2023-06-26T06:03:17;9.73;;;4.95;;
30888;SDS011;51092;50.874;7.024;2023-06-26T06:04:19;10.10;;;5.32;;
30888;SDS011;51092;50.874;7.024;2023-06-26T06:05:21;8.02;;;5.15;;
30888;SDS011;51092;50.874;7.024;2023-06-26T06:06:23;9.02;;;4.80;;
30888;SDS011;51092;50.874;7.024;2023-06-26T06:07:27;8.35;;;4.65;;
30888;SDS011;51092;50.874;7.024;2023-06-26T06:08:30;7.32;;;4.40;;
30888;SDS011;51092;50.874;7.024;2023-06-26T06:09:32;11.82;;;4.82;;
30888;SDS011;51092;50.874;7.024;2023-06-26T06:10:34;10.55;;;5.15;;
30888;SDS011;51092;50.874;7.024;2023-06-26T06:11:38;13.05;;;4.50;;
30888;SDS011;51092;50.874;7.024;2023-06-26T06:12:39;8.48;;;4.50;;
30888;SDS011;51092;50.874;7.024;2023-06-26T06:13:42;9.32;;;4.40;;
30888;SDS011;51092;50.874;7.024;2023-06-26T06:14:43;12.27;;;4.57;;
30888;SDS011;51092;50.874;7.024;2023-06-26T06:15:46;9.65;;;4.88;;
30888;SDS011;51092;50.874;7.024;2023-06-26T06:16:48;7.50;;;4.60;;
30888;SDS011;51092;50.874;7.024;2023-06-26T06:17:50;11.07;;;4.72;;